Time;durP1;ratioP1;P1;durP2;ratioP2;P2;SDS_P1;SDS_P2;PMS_P1;PMS_P2;Temp;Humidity;BMP_temperature;BMP_pressure;BME280_temperature;BME280_humidity;BME280_pressure;Samples;Min_cycle;Max_cycle;Signal;HPM_P1;HPM_P2
2022/07/22 00:01:51;;;;;;;2.30;0.93;;;16.70;99.90;;;;;;5030166;28;20037;-71
2022/07/22 00:04:16;;;;;;;6.30;1.20;;;16.70;99.90;;;;;;5031276;28;20061;-70
2022/07/22 00:06:42;;;;;;;4.97;0.93;;;16.80;99.90;;;;;;5032087;28;20041;-71
2022/07/22 00:09:08;;;;;;;8.55;1.35;;;16.70;99.90;;;;;;5031074;28;20397;-69
2022/07/22 00:11:34;;;;;;;4.38;0.80;;;16.70;99.90;;;;;;5028842;28;20041;-70
2022/07/22 00:13:59;;;;;;;9.05;0.82;;;16.70;99.90;;;;;;5030890;28;20036;-71
2022/07/22 00:16:25;;;;;;;4.25;0.80;;;16.70;99.90;;;;;;5031704;28;20405;-70
2022/07/22 00:18:51;;;;;;;2.50;0.90;;;16.70;99.90;;;;;;5031281;28;20035;-71
2022/07/22 00:21:17;;;;;;;5.57;0.70;;;16.70;99.90;;;;;;5031484;28;20030;-70
2022/07/22 00:23:42;;;;;;;2.22;0.80;;;16.70;99.90;;;;;;5030217;28;20029;-70
2022/07/22 00:26:08;;;;;;;12.60;1.27;;;16.70;99.90;;;;;;5034010;28;20550;-70
2022/07/22 00:28:33;;;;;;;8.18;1.77;;;16.70;99.90;;;;;;5032567;28;20452;-71
2022/07/22 00:30:59;;;;;;;1.52;0.60;;;16.70;99.90;;;;;;5030446;28;20056;-71
2022/07/22 00:33:24;;;;;;;6.05;1.30;;;16.70;99.90;;;;;;5031087;28;20029;-69
2022/07/22 00:35:50;;;;;;;8.15;1.10;;;16.70;99.90;;;;;;5031004;28;20032;-70
2022/07/22 00:38:16;;;;;;;4.18;1.20;;;16.70;99.90;;;;;;5030923;28;20079;-70
2022/07/22 00:40:41;;;;;;;7.35;1.58;;;16.70;99.90;;;;;;5031499;28;20030;-70
2022/07/22 00:43:07;;;;;;;2.75;0.77;;;16.70;99.90;;;;;;5029258;28;20030;-71
2022/07/22 00:45:33;;;;;;;8.13;1.20;;;16.70;99.90;;;;;;5031214;28;20489;-70
2022/07/22 00:47:58;;;;;;;4.10;1.10;;;16.70;99.90;;;;;;5030345;28;20448;-71
2022/07/22 00:50:24;;;;;;;6.60;0.80;;;16.70;99.90;;;;;;5031140;28;20460;-70
2022/07/22 00:52:50;;;;;;;5.30;0.88;;;16.70;99.90;;;;;;5030499;28;20033;-71
2022/07/22 00:55:16;;;;;;;4.88;1.00;;;16.70;99.90;;;;;;5031026;28;20378;-70
2022/07/22 00:57:42;;;;;;;4.45;1.20;;;16.70;99.90;;;;;;5031297;28;20040;-70
2022/07/22 01:00:12;;;;;;;6.40;0.95;;;16.70;99.90;;;;;;5028256;28;20030;-70
2022/07/22 01:02:38;;;;;;;3.90;1.15;;;16.70;99.90;;;;;;5030832;28;20044;-71
2022/07/22 01:05:05;;;;;;;4.78;1.20;;;16.70;99.90;;;;;;5030437;28;20037;-70
2022/07/22 01:07:31;;;;;;;5.97;0.90;;;16.70;99.90;;;;;;5031006;28;20044;-71
2022/07/22 01:09:57;;;;;;;4.55;1.02;;;16.70;99.90;;;;;;5030179;28;20034;-70
2022/07/22 01:12:22;;;;;;;5.32;1.20;;;16.70;99.90;;;;;;5030347;28;20033;-69
2022/07/22 01:14:48;;;;;;;3.97;1.40;;;16.70;99.90;;;;;;5030223;28;20037;-69
2022/07/22 01:17:14;;;;;;;6.13;1.70;;;16.70;99.90;;;;;;5030382;28;20485;-70
2022/07/22 01:19:39;;;;;;;2.10;0.77;;;16.70;99.90;;;;;;5030600;28;20254;-70
2022/07/22 01:22:05;;;;;;;6.55;1.27;;;16.70;99.90;;;;;;5029838;28;20037;-70
2022/07/22 01:24:31;;;;;;;4.68;0.80;;;16.70;99.90;;;;;;5030113;28;20045;-71
2022/07/22 01:26:57;;;;;;;4.32;1.35;;;16.70;99.90;;;;;;5032542;28;20125;-71
2022/07/22 01:29:23;;;;;;;3.20;0.80;;;16.70;99.90;;;;;;5029916;28;20144;-70
2022/07/22 01:31:49;;;;;;;12.98;1.13;;;16.70;99.90;;;;;;5030121;28;20498;-70
2022/07/22 01:34:14;;;;;;;3.53;1.10;;;16.70;99.90;;;;;;5029056;28;20042;-70
2022/07/22 01:36:40;;;;;;;3.13;0.80;;;16.70;99.90;;;;;;5030759;28;20420;-70
2022/07/22 01:39:06;;;;;;;9.02;1.00;;;16.70;99.90;;;;;;5029694;28;20045;-70
2022/07/22 01:41:32;;;;;;;4.10;0.90;;;16.60;99.90;;;;;;5030350;28;20037;-70
2022/07/22 01:43:57;;;;;;;6.72;1.30;;;16.60;99.90;;;;;;5029337;28;20056;-71
2022/07/22 01:46:23;;;;;;;8.60;1.38;;;16.70;99.90;;;;;;5026087;28;20152;-69
2022/07/22 01:48:52;;;;;;;5.65;0.82;;;16.70;99.90;;;;;;5029797;28;20053;-70
2022/07/22 01:51:18;;;;;;;2.85;1.02;;;16.60;99.90;;;;;;5029554;28;20144;-70
2022/07/22 01:53:44;;;;;;;8.07;1.33;;;16.60;99.90;;;;;;5029886;28;20087;-70
2022/07/22 01:56:10;;;;;;;10.95;1.77;;;16.60;99.90;;;;;;5029081;28;20033;-71
2022/07/22 01:58:35;;;;;;;7.18;0.95;;;16.60;99.90;;;;;;5029909;28;20548;-71
2022/07/22 02:01:01;;;;;;;2.67;1.48;;;16.60;99.90;;;;;;5026936;28;20064;-71
2022/07/22 02:03:27;;;;;;;4.85;0.90;;;16.60;99.90;;;;;;5029556;28;20040;-70
2022/07/22 02:05:52;;;;;;;4.18;0.70;;;16.60;99.90;;;;;;5029258;28;20036;-71
2022/07/22 02:08:18;;;;;;;4.40;0.75;;;16.60;99.90;;;;;;5029496;28;20071;-71
2022/07/22 02:10:44;;;;;;;4.85;0.95;;;16.60;99.90;;;;;;5029501;28;20041;-70
2022/07/22 02:13:10;;;;;;;10.25;1.38;;;16.60;99.90;;;;;;5028804;28;20029;-70
2022/07/22 02:15:35;;;;;;;3.45;1.15;;;16.60;99.90;;;;;;5029799;28;20133;-70
2022/07/22 02:18:10;;;;;;;4.97;1.15;;;16.60;99.90;;;;;;5029025;28;20453;-70
2022/07/22 02:20:35;;;;;;;3.70;0.70;;;16.60;99.90;;;;;;5029565;28;20092;-70
2022/07/22 02:23:01;;;;;;;3.92;0.80;;;16.60;99.90;;;;;;5028639;28;20517;-70
2022/07/22 02:25:26;;;;;;;6.93;0.88;;;16.60;99.90;;;;;;5029266;28;20090;-69
2022/07/22 02:27:52;;;;;;;11.50;1.63;;;16.60;99.90;;;;;;5032787;28;20124;-71
2022/07/22 02:30:17;;;;;;;5.20;1.17;;;16.60;99.90;;;;;;5029130;28;20075;-71
2022/07/22 02:32:43;;;;;;;2.05;0.70;;;16.50;99.90;;;;;;5029050;28;20033;-70
2022/07/22 02:35:09;;;;;;;3.58;1.05;;;16.50;99.90;;;;;;5027994;28;20080;-70
2022/07/22 02:37:36;;;;;;;4.93;1.23;;;16.50;99.90;;;;;;5029041;28;20135;-71
2022/07/22 02:40:02;;;;;;;6.95;0.50;;;16.50;99.90;;;;;;5028024;28;20036;-71
2022/07/22 02:42:28;;;;;;;7.47;0.80;;;16.60;99.90;;;;;;5028995;28;20041;-71
2022/07/22 02:44:53;;;;;;;8.25;1.27;;;16.50;99.90;;;;;;5028711;28;20505;-70
2022/07/22 02:47:19;;;;;;;3.30;0.88;;;16.50;99.90;;;;;;5026585;28;20032;-70
2022/07/22 02:49:44;;;;;;;7.43;0.95;;;16.50;99.90;;;;;;5028877;28;20041;-71
2022/07/22 02:52:10;;;;;;;1.98;0.65;;;16.50;99.90;;;;;;5027981;28;20041;-71
2022/07/22 02:54:35;;;;;;;3.67;0.73;;;16.50;99.90;;;;;;5028813;28;20029;-70
2022/07/22 02:57:01;;;;;;;8.18;0.60;;;16.50;99.90;;;;;;5028725;28;20430;-70
2022/07/22 02:59:27;;;;;;;4.38;0.68;;;16.50;99.90;;;;;;5028586;28;20490;-71
2022/07/22 03:01:52;;;;;;;4.43;0.82;;;16.50;99.90;;;;;;5028554;28;20034;-70
2022/07/22 03:04:18;;;;;;;2.28;0.57;;;16.50;99.90;;;;;;5027322;28;20464;-70
2022/07/22 03:06:43;;;;;;;4.60;0.60;;;16.50;99.90;;;;;;5029169;28;20486;-70
2022/07/22 03:09:09;;;;;;;5.40;0.80;;;16.50;99.90;;;;;;5027737;28;20033;-70
2022/07/22 03:11:34;;;;;;;8.30;0.88;;;16.50;99.90;;;;;;5028969;28;20081;-70
2022/07/22 03:14:00;;;;;;;6.47;1.33;;;16.50;99.90;;;;;;5028299;28;20037;-70
2022/07/22 03:16:25;;;;;;;5.05;0.63;;;16.50;99.90;;;;;;5028364;28;20033;-71
2022/07/22 03:18:51;;;;;;;3.00;0.70;;;16.50;99.90;;;;;;5028870;28;20037;-70
2022/07/22 03:21:16;;;;;;;6.93;1.27;;;16.50;99.90;;;;;;5031447;28;20071;-70
2022/07/22 03:23:42;;;;;;;4.70;1.38;;;16.50;99.90;;;;;;5029941;28;20179;-70
2022/07/22 03:26:08;;;;;;;2.75;1.02;;;16.50;99.90;;;;;;5029672;28;20129;-70
2022/07/22 03:28:33;;;;;;;2.13;0.82;;;16.50;99.90;;;;;;5030793;28;20032;-70
2022/07/22 03:30:59;;;;;;;3.70;0.80;;;16.50;99.90;;;;;;5027886;28;20042;-71
2022/07/22 03:33:24;;;;;;;3.33;0.70;;;16.50;99.90;;;;;;5028147;28;20489;-70
2022/07/22 03:35:50;;;;;;;5.63;1.20;;;16.50;99.90;;;;;;5028306;28;20030;-70
2022/07/22 03:38:15;;;;;;;3.28;0.65;;;16.50;99.90;;;;;;5030021;28;20021;-70
2022/07/22 03:40:41;;;;;;;6.28;0.70;;;16.50;99.90;;;;;;5028529;28;20180;-70
2022/07/22 03:43:08;;;;;;;3.00;0.55;;;16.50;99.90;;;;;;5027278;28;20042;-70
2022/07/22 03:45:33;;;;;;;3.83;0.75;;;16.50;99.90;;;;;;5028622;28;20029;-70
2022/07/22 03:47:59;;;;;;;2.70;0.80;;;16.50;99.90;;;;;;5028453;28;20064;-71
2022/07/22 03:50:25;;;;;;;7.57;1.10;;;16.50;99.90;;;;;;5027746;28;20082;-70
2022/07/22 03:52:51;;;;;;;4.00;0.88;;;16.50;99.90;;;;;;5027567;28;20030;-70
2022/07/22 03:55:16;;;;;;;3.83;0.68;;;16.50;99.90;;;;;;5028954;28;20103;-71
2022/07/22 03:57:42;;;;;;;2.67;0.75;;;16.50;99.90;;;;;;5030373;28;20048;-70
2022/07/22 04:00:08;;;;;;;3.63;0.77;;;16.50;99.90;;;;;;5031245;28;20041;-71
2022/07/22 04:02:34;;;;;;;14.55;1.48;;;16.50;99.90;;;;;;5031713;28;20552;-70
2022/07/22 04:04:59;;;;;;;1.58;0.40;;;16.50;99.90;;;;;;5031483;28;20113;-70
2022/07/22 04:07:25;;;;;;;3.85;0.77;;;16.50;99.90;;;;;;5031328;28;20125;-71
2022/07/22 04:09:50;;;;;;;4.45;0.80;;;16.50;99.90;;;;;;5031118;28;20033;-70
2022/07/22 04:12:16;;;;;;;9.52;0.65;;;16.50;99.90;;;;;;5031335;28;20033;-70
2022/07/22 04:14:41;;;;;;;5.45;0.90;;;16.50;99.90;;;;;;5031800;28;20040;-70
2022/07/22 04:17:07;;;;;;;1.15;0.52;;;16.50;99.90;;;;;;5031230;28;20029;-70
2022/07/22 04:19:32;;;;;;;4.40;0.55;;;16.50;99.90;;;;;;5030931;28;20033;-70
2022/07/22 04:21:58;;;;;;;2.63;0.50;;;16.50;99.90;;;;;;5028679;28;20136;-71
2022/07/22 04:24:23;;;;;;;4.05;0.70;;;16.50;99.90;;;;;;5031221;28;20393;-70
2022/07/22 04:26:49;;;;;;;6.25;0.70;;;16.50;99.90;;;;;;5032412;28;20260;-70
2022/07/22 04:29:15;;;;;;;4.75;0.82;;;16.50;99.90;;;;;;5035242;28;20516;-70
2022/07/22 04:31:40;;;;;;;4.35;0.60;;;16.50;99.90;;;;;;5031308;28;20068;-70
2022/07/22 04:34:06;;;;;;;2.05;0.40;;;16.60;99.90;;;;;;5030741;28;20045;-70
2022/07/22 04:36:31;;;;;;;3.90;0.98;;;16.60;99.90;;;;;;5031397;28;20033;-70
2022/07/22 04:38:57;;;;;;;1.95;0.60;;;16.60;99.90;;;;;;5030717;28;20041;-70
2022/07/22 04:41:22;;;;;;;4.18;0.57;;;16.60;99.90;;;;;;5030788;28;20042;-70
2022/07/22 04:43:48;;;;;;;5.45;0.55;;;16.60;99.90;;;;;;5030714;28;20065;-70
2022/07/22 04:46:14;;;;;;;3.83;0.60;;;16.60;99.90;;;;;;5030872;28;20393;-70
2022/07/22 04:48:39;;;;;;;6.32;0.70;;;16.60;99.90;;;;;;5031447;28;20420;-70
2022/07/22 04:51:05;;;;;;;1.90;0.65;;;16.60;99.90;;;;;;5030547;28;20132;-71
2022/07/22 04:53:31;;;;;;;8.80;0.55;;;16.60;99.90;;;;;;5030756;28;20038;-71
2022/07/22 04:55:56;;;;;;;2.53;0.30;;;16.70;99.90;;;;;;5030438;28;20029;-70
2022/07/22 04:58:22;;;;;;;2.92;0.43;;;16.60;99.90;;;;;;5030792;28;20061;-70
2022/07/22 05:00:48;;;;;;;4.82;1.15;;;16.70;99.90;;;;;;5030357;28;20045;-69
2022/07/22 05:03:14;;;;;;;1.75;0.50;;;16.70;99.90;;;;;;5030162;28;20034;-70
2022/07/22 05:05:39;;;;;;;6.15;0.85;;;16.70;99.90;;;;;;5027055;28;20030;-71
2022/07/22 05:08:05;;;;;;;3.03;0.80;;;16.80;99.90;;;;;;5030144;28;20033;-70
2022/07/22 05:10:31;;;;;;;2.85;0.60;;;16.70;99.90;;;;;;5029924;28;20038;-70
2022/07/22 05:12:57;;;;;;;4.88;0.60;;;16.80;99.90;;;;;;5029927;28;20060;-70
2022/07/22 05:15:22;;;;;;;4.85;0.70;;;16.80;99.90;;;;;;5030482;28;20029;-70
2022/07/22 05:17:48;;;;;;;7.05;1.25;;;16.80;99.90;;;;;;5030129;28;20564;-69
2022/07/22 05:20:16;;;;;;;2.00;0.70;;;16.80;99.90;;;;;;5030470;28;20041;-70
2022/07/22 05:22:41;;;;;;;3.65;0.60;;;16.80;99.90;;;;;;5026195;28;20132;-70
2022/07/22 05:25:07;;;;;;;5.50;1.65;;;16.80;99.90;;;;;;5030300;28;20125;-70
2022/07/22 05:27:33;;;;;;;3.58;0.65;;;16.90;99.90;;;;;;5030479;28;20516;-71
2022/07/22 05:29:58;;;;;;;4.05;1.00;;;16.90;99.90;;;;;;5033026;28;20033;-71
2022/07/22 05:32:24;;;;;;;6.07;1.02;;;16.90;99.90;;;;;;5029879;28;20053;-70
2022/07/22 05:34:50;;;;;;;3.53;1.00;;;17.00;99.90;;;;;;5030124;28;20034;-70
2022/07/22 05:37:15;;;;;;;5.13;1.05;;;17.00;99.90;;;;;;5028731;28;20037;-70
2022/07/22 05:39:42;;;;;;;4.32;1.10;;;17.10;99.90;;;;;;5030571;28;20036;-69
2022/07/22 05:42:08;;;;;;;4.97;1.17;;;17.10;99.90;;;;;;5029611;28;20565;-71
2022/07/22 05:44:33;;;;;;;4.68;0.77;;;17.10;99.90;;;;;;5030070;28;20117;-70
2022/07/22 05:46:59;;;;;;;2.63;0.55;;;17.20;99.90;;;;;;5029549;28;20506;-70
2022/07/22 05:49:26;;;;;;;5.00;1.23;;;17.20;99.90;;;;;;5027786;28;20037;-70
2022/07/22 05:51:53;;;;;;;2.45;0.70;;;17.10;99.90;;;;;;5027275;28;20041;-70
2022/07/22 05:54:20;;;;;;;3.05;0.88;;;17.20;99.90;;;;;;5029606;28;20029;-70
2022/07/22 05:56:45;;;;;;;2.55;0.65;;;17.20;99.90;;;;;;5029582;28;20033;-71
2022/07/22 05:59:11;;;;;;;3.45;0.73;;;17.30;99.90;;;;;;5027569;28;20034;-70
2022/07/22 06:01:36;;;;;;;1.75;0.52;;;17.30;99.90;;;;;;5029807;28;20121;-71
2022/07/22 06:04:02;;;;;;;3.08;0.55;;;17.40;99.90;;;;;;5028814;28;20037;-70
2022/07/22 06:06:27;;;;;;;1.13;0.68;;;17.50;99.90;;;;;;5029178;28;20029;-70
2022/07/22 06:08:53;;;;;;;3.90;0.85;;;17.60;99.90;;;;;;5029274;28;20084;-70
2022/07/22 06:11:18;;;;;;;1.63;0.73;;;17.60;99.90;;;;;;5029313;28;20066;-70
2022/07/22 06:13:44;;;;;;;1.45;0.57;;;17.60;99.90;;;;;;5029107;28;20021;-70
2022/07/22 06:16:10;;;;;;;3.60;0.50;;;17.60;99.90;;;;;;5029120;28;20029;-70
2022/07/22 06:18:35;;;;;;;0.70;0.32;;;17.70;99.90;;;;;;5029507;28;20029;-70
2022/07/22 06:21:01;;;;;;;2.72;0.40;;;17.70;99.90;;;;;;5028873;28;20034;-70
2022/07/22 06:23:26;;;;;;;4.75;0.70;;;17.80;99.90;;;;;;5028591;28;20069;-70
2022/07/22 06:25:52;;;;;;;1.85;0.40;;;17.80;99.90;;;;;;5029021;28;20116;-70
2022/07/22 06:28:17;;;;;;;2.83;0.20;;;17.80;99.90;;;;;;5031700;28;20025;-70
2022/07/22 06:30:43;;;;;;;3.72;0.43;;;17.80;99.90;;;;;;5029366;28;20124;-70
2022/07/22 06:33:09;;;;;;;1.10;0.20;;;17.80;99.90;;;;;;5028029;28;20044;-70
2022/07/22 06:35:34;;;;;;;3.58;0.30;;;17.80;99.90;;;;;;5029309;28;20551;-69
2022/07/22 06:38:00;;;;;;;1.65;0.60;;;17.80;99.90;;;;;;5025242;28;20048;-71
2022/07/22 06:40:26;;;;;;;2.58;0.80;;;17.90;99.90;;;;;;5028658;28;20037;-71
2022/07/22 06:42:51;;;;;;;2.45;0.65;;;18.00;99.90;;;;;;5028899;28;20490;-71
2022/07/22 06:45:17;;;;;;;6.28;0.88;;;18.10;99.90;;;;;;5028826;28;20033;-70
2022/07/22 06:47:42;;;;;;;0.77;0.30;;;18.20;99.90;;;;;;5029090;28;20461;-70
2022/07/22 06:50:09;;;;;;;4.95;0.77;;;18.30;99.90;;;;;;5026707;28;20171;-70
2022/07/22 06:52:38;;;;;;;6.82;0.68;;;18.30;99.90;;;;;;5028509;28;20039;-71
2022/07/22 06:55:04;;;;;;;2.70;0.98;;;18.40;99.90;;;;;;5028551;28;20038;-71
2022/07/22 06:57:30;;;;;;;2.45;0.30;;;18.40;99.90;;;;;;5028435;28;20044;-71
2022/07/22 06:59:55;;;;;;;3.70;0.43;;;18.40;99.90;;;;;;5028388;28;20474;-70
2022/07/22 07:02:21;;;;;;;1.60;0.40;;;18.50;99.90;;;;;;5028579;28;20037;-70
2022/07/22 07:04:46;;;;;;;4.70;0.82;;;18.50;99.90;;;;;;5028665;28;20087;-70
2022/07/22 07:07:12;;;;;;;2.65;0.20;;;18.50;99.90;;;;;;5028216;28;20116;-70
2022/07/22 07:09:38;;;;;;;6.05;0.55;;;18.60;99.90;;;;;;5028839;28;20195;-70
2022/07/22 07:12:03;;;;;;;12.57;1.00;;;18.60;99.90;;;;;;5028422;28;20505;-70
2022/07/22 07:14:29;;;;;;;5.10;0.25;;;18.70;99.90;;;;;;5027986;28;20042;-70
2022/07/22 07:16:54;;;;;;;1.00;0.22;;;18.70;99.90;;;;;;5028037;28;20044;-71
2022/07/22 07:19:20;;;;;;;2.58;0.30;;;18.80;99.90;;;;;;5027655;28;20037;-71
2022/07/22 07:21:46;;;;;;;1.95;0.28;;;18.80;99.90;;;;;;5028518;28;20087;-70
2022/07/22 07:24:11;;;;;;;3.78;0.20;;;18.90;99.90;;;;;;5026971;28;20152;-70
2022/07/22 07:26:37;;;;;;;2.35;0.25;;;18.90;99.90;;;;;;5032297;28;20512;-70
2022/07/22 07:29:03;;;;;;;2.00;0.30;;;19.00;99.90;;;;;;5030373;28;20029;-70
2022/07/22 07:31:29;;;;;;;2.20;0.45;;;19.00;99.90;;;;;;5026125;28;20037;-70
2022/07/22 07:33:54;;;;;;;2.67;0.30;;;19.00;99.90;;;;;;5031056;28;20033;-70
2022/07/22 07:36:20;;;;;;;3.70;0.40;;;19.00;99.90;;;;;;5032086;28;20551;-71
2022/07/22 07:38:46;;;;;;;5.22;0.75;;;19.00;99.90;;;;;;5031829;28;20029;-70
2022/07/22 07:41:12;;;;;;;2.30;0.45;;;19.00;99.90;;;;;;5030973;28;20374;-71
2022/07/22 07:43:37;;;;;;;6.22;0.40;;;19.00;99.90;;;;;;5031625;28;20021;-70
2022/07/22 07:46:03;;;;;;;6.50;0.50;;;19.00;99.90;;;;;;5031445;28;20112;-70
2022/07/22 07:48:29;;;;;;;2.88;0.30;;;18.90;99.90;;;;;;5031524;28;20026;-71
2022/07/22 07:50:54;;;;;;;4.13;0.75;;;19.00;99.90;;;;;;5031501;28;20045;-70
2022/07/22 07:53:20;;;;;;;2.42;0.55;;;18.90;99.90;;;;;;5030310;28;20121;-70
2022/07/22 07:55:46;;;;;;;3.30;0.60;;;18.90;99.90;;;;;;5031996;28;20033;-71
2022/07/22 07:58:11;;;;;;;6.22;0.90;;;19.00;99.90;;;;;;5031083;28;20040;-70
2022/07/22 08:00:39;;;;;;;3.53;0.38;;;19.00;99.90;;;;;;5026876;28;20037;-70
2022/07/22 08:03:05;;;;;;;5.55;0.73;;;19.10;99.90;;;;;;5028870;28;20113;-70
2022/07/22 08:05:30;;;;;;;4.43;0.50;;;19.10;99.90;;;;;;5030570;28;20568;-71
2022/07/22 08:07:56;;;;;;;1.38;0.30;;;19.20;99.90;;;;;;5029907;28;20125;-70
2022/07/22 08:10:22;;;;;;;2.20;0.20;;;19.30;99.90;;;;;;5030049;28;20091;-71
2022/07/22 08:12:49;;;;;;;1.65;0.45;;;19.40;99.90;;;;;;5028552;28;20036;-70
2022/07/22 08:15:15;;;;;;;2.17;0.50;;;19.50;99.90;;;;;;5030387;28;20056;-70
2022/07/22 08:17:41;;;;;;;2.33;0.30;;;19.50;99.90;;;;;;5030442;28;20026;-70
2022/07/22 08:20:07;;;;;;;3.58;0.50;;;19.60;99.90;;;;;;5030032;28;20047;-70
2022/07/22 08:22:33;;;;;;;3.25;0.43;;;19.60;99.90;;;;;;5028700;28;20120;-70
2022/07/22 08:24:59;;;;;;;3.05;0.50;;;19.70;99.90;;;;;;5032252;28;20057;-70
2022/07/22 08:27:25;;;;;;;1.80;0.30;;;19.80;99.90;;;;;;5030739;28;20465;-70
2022/07/22 08:29:50;;;;;;;3.28;0.85;;;19.90;99.90;;;;;;5031638;28;20037;-69
2022/07/22 08:32:16;;;;;;;2.05;0.60;;;20.10;99.90;;;;;;5029281;28;20037;-71
2022/07/22 08:34:41;;;;;;;2.17;0.28;;;20.30;99.90;;;;;;5029801;28;20107;-70
2022/07/22 08:37:07;;;;;;;2.83;0.40;;;20.30;99.90;;;;;;5029558;28;20039;-70
2022/07/22 08:39:33;;;;;;;1.63;0.45;;;20.40;99.90;;;;;;5029324;28;20033;-70
2022/07/22 08:41:59;;;;;;;1.58;0.73;;;20.40;99.90;;;;;;5025854;28;20440;-70
2022/07/22 08:44:29;;;;;;;2.17;0.52;;;20.60;99.90;;;;;;5027817;28;20116;-70
2022/07/22 08:46:55;;;;;;;2.22;0.80;;;20.60;99.90;;;;;;5030012;28;20029;-70
2022/07/22 08:49:21;;;;;;;1.58;0.40;;;20.70;99.90;;;;;;5028994;28;20086;-70
2022/07/22 08:51:46;;;;;;;1.27;0.50;;;20.80;99.90;;;;;;5029708;28;20041;-70
2022/07/22 08:54:12;;;;;;;1.13;0.50;;;20.90;99.90;;;;;;5028622;28;20033;-70
2022/07/22 08:56:39;;;;;;;2.65;0.85;;;20.90;99.90;;;;;;5029667;28;20034;-70
2022/07/22 08:59:04;;;;;;;3.30;0.80;;;20.90;99.90;;;;;;5028718;28;20059;-70
2022/07/22 09:01:30;;;;;;;2.88;0.85;;;21.00;99.90;;;;;;5022553;28;20021;-70
2022/07/22 09:03:57;;;;;;;1.05;0.40;;;21.10;99.90;;;;;;5025880;28;20029;-71
2022/07/22 09:06:25;;;;;;;2.63;0.68;;;21.40;99.90;;;;;;5026640;28;20034;-70
2022/07/22 09:09:04;;;;;;;1.85;0.60;;;21.50;99.90;;;;;;5026274;28;20052;-70
2022/07/22 09:11:31;;;;;;;1.35;0.52;;;21.60;99.90;;;;;;5025369;28;20037;-71
2022/07/22 09:13:58;;;;;;;5.40;1.02;;;21.70;99.90;;;;;;5024871;28;20045;-70
2022/07/22 09:16:47;;;;;;;1.75;0.40;;;21.60;99.90;;;;;;5030234;28;20032;-70
2022/07/22 09:19:14;;;;;;;2.45;0.90;;;21.60;99.90;;;;;;5025532;28;20025;-70
2022/07/22 09:21:43;;;;;;;2.55;0.63;;;21.60;99.90;;;;;;5029708;28;20041;-71
2022/07/22 09:24:29;;;;;;;0.98;0.57;;;21.40;99.90;;;;;;5036746;28;20553;-70
2022/07/22 09:26:55;;;;;;;5.30;0.90;;;21.30;99.90;;;;;;5033771;28;20037;-70
2022/07/22 09:29:22;;;;;;;3.40;0.98;;;21.00;99.90;;;;;;5028795;28;20052;-71
2022/07/22 09:31:52;;;;;;;1.45;0.65;;;20.90;99.90;;;;;;5033136;28;20108;-69
2022/07/22 09:34:34;;;;;;;3.05;1.35;;;20.90;99.90;;;;;;5028209;28;20029;-73
2022/07/22 09:37:00;;;;;;;3.50;1.25;;;20.80;99.90;;;;;;5026179;28;20046;-71
2022/07/22 09:39:32;;;;;;;2.63;1.17;;;20.80;99.90;;;;;;5028549;28;20034;-70
2022/07/22 09:42:05;;;;;;;2.10;1.05;;;20.70;99.90;;;;;;5025717;28;20037;-70
2022/07/22 09:44:31;;;;;;;1.83;0.98;;;20.70;99.90;;;;;;5025874;28;20037;-71
2022/07/22 09:46:56;;;;;;;8.85;1.48;;;20.70;99.90;;;;;;5029179;28;20096;-70
2022/07/22 09:49:38;;;;;;;2.45;1.17;;;20.80;99.90;;;;;;5025647;28;20038;-71
2022/07/22 09:52:04;;;;;;;2.70;1.20;;;20.80;99.90;;;;;;5026736;28;20072;-70
2022/07/22 09:54:30;;;;;;;6.35;1.20;;;20.70;99.90;;;;;;5028908;28;20049;-71
2022/07/22 09:56:57;;;;;;;5.70;1.77;;;20.70;99.90;;;;;;5031711;28;20033;-71
2022/07/22 09:59:23;;;;;;;3.35;1.20;;;20.70;99.90;;;;;;5028992;28;20040;-70
2022/07/22 10:01:54;;;;;;;5.22;1.27;;;20.70;99.90;;;;;;5028865;28;20394;-70
2022/07/22 10:04:20;;;;;;;3.53;1.25;;;20.80;99.90;;;;;;5028876;28;20120;-71
2022/07/22 10:06:48;;;;;;;3.33;1.30;;;20.70;99.90;;;;;;5028968;28;20053;-70
2022/07/22 10:09:16;;;;;;;3.42;1.65;;;20.70;99.90;;;;;;5027873;28;20516;-70
2022/07/22 10:11:45;;;;;;;5.47;1.40;;;20.70;99.90;;;;;;5028557;28;20033;-71
2022/07/22 10:14:12;;;;;;;3.20;1.40;;;20.60;99.90;;;;;;5028270;28;20034;-72
2022/07/22 10:16:38;;;;;;;2.67;1.33;;;20.50;99.90;;;;;;5027461;28;20128;-70
2022/07/22 10:19:04;;;;;;;2.13;1.20;;;20.60;99.90;;;;;;5028769;28;20064;-71
2022/07/22 10:21:34;;;;;;;2.65;1.33;;;20.60;99.90;;;;;;5028259;28;20489;-71
2022/07/22 10:24:09;;;;;;;5.80;1.63;;;20.70;99.90;;;;;;5028565;28;20064;-71
2022/07/22 10:26:55;;;;;;;3.35;1.55;;;20.90;99.60;;;;;;5030719;28;20079;-71
2022/07/22 10:29:30;;;;;;;3.08;1.10;;;21.00;98.80;;;;;;5028488;28;20029;-71
2022/07/22 10:32:15;;;;;;;2.88;0.98;;;21.10;99.00;;;;;;5025072;28;20052;-71
2022/07/22 10:38:07;;;;;;;1.98;0.95;;;21.10;99.90;;;;;;5025402;28;20171;-71
2022/07/22 10:41:00;;;;;;;1.52;0.85;;;21.10;99.90;;;;;;5028477;28;20041;-71
2022/07/22 10:43:50;;;;;;;4.35;1.20;;;21.10;99.90;;;;;;5023826;28;20406;-71
2022/07/22 10:46:16;;;;;;;4.60;0.80;;;21.20;99.90;;;;;;5027247;28;20037;-71
2022/07/22 10:48:41;;;;;;;2.20;0.82;;;21.30;99.90;;;;;;5028739;28;20033;-71
2022/07/22 10:51:21;;;;;;;4.82;1.30;;;21.50;99.90;;;;;;5028114;28;20120;-71
2022/07/22 10:54:01;;;;;;;2.55;0.85;;;21.60;99.20;;;;;;5028234;28;20056;-71
2022/07/22 10:56:31;;;;;;;;;;;21.70;99.20;;;;;;5025289;28;20786;-71
2022/07/22 10:59:19;;;;;;;2.97;0.90;;;21.70;99.60;;;;;;5028425;28;19928;-71
2022/07/22 11:01:48;;;;;;;4.60;0.88;;;21.90;99.90;;;;;;5028376;28;20033;-72
2022/07/22 11:04:22;;;;;;;1.25;0.68;;;22.10;99.40;;;;;;5026399;28;20044;-71
2022/07/22 11:06:49;;;;;;;3.83;0.95;;;22.40;98.70;;;;;;5026915;28;20029;-70
2022/07/22 11:09:16;;;;;;;2.65;0.93;;;22.40;98.20;;;;;;5028526;28;20641;-71
2022/07/22 11:11:44;;;;;;;2.33;0.85;;;22.50;97.50;;;;;;5028314;28;20555;-71
2022/07/22 11:14:19;;;;;;;3.28;1.08;;;22.50;97.00;;;;;;5027888;28;20033;-71
2022/07/22 11:16:46;;;;;;;3.05;1.30;;;22.50;98.10;;;;;;5028150;28;20117;-71
2022/07/22 11:19:12;;;;;;;1.73;0.75;;;22.70;98.00;;;;;;5028051;28;20038;-70
2022/07/22 11:21:39;;;;;;;4.85;0.80;;;22.70;97.50;;;;;;5022962;28;20501;-71
2022/07/22 11:24:06;;;;;;;2.58;0.80;;;22.70;97.00;;;;;;5026294;28;20064;-71
2022/07/22 11:26:42;;;;;;;2.60;1.25;;;22.70;98.00;;;;;;5029645;28;20056;-71
2022/07/22 11:29:09;;;;;;;1.77;1.00;;;22.60;96.60;;;;;;5026718;28;20041;-71
2022/07/22 11:31:36;;;;;;;4.30;1.15;;;22.70;96.90;;;;;;5028124;28;20557;-71
2022/07/22 11:34:20;;;;;;;3.22;1.38;;;22.90;97.00;;;;;;5027831;28;20033;-70
2022/07/22 11:36:46;;;;;;;3.72;1.23;;;23.00;95.70;;;;;;5028189;28;20026;-70
2022/07/22 11:39:13;;;;;;;3.15;1.10;;;23.00;95.50;;;;;;5027694;28;20039;-70
2022/07/22 11:41:40;;;;;;;1.60;0.80;;;22.90;95.70;;;;;;5027587;28;20083;-72
2022/07/22 11:44:06;;;;;;;2.30;1.17;;;22.80;95.70;;;;;;5027807;28;20041;-71
2022/07/22 11:46:37;;;;;;;1.92;1.10;;;22.70;96.10;;;;;;5028031;28;20493;-71
2022/07/22 11:49:03;;;;;;;2.08;1.05;;;22.60;95.30;;;;;;5027957;28;20087;-71
2022/07/22 11:51:30;;;;;;;1.77;0.80;;;22.60;94.70;;;;;;5027671;28;20029;-71
2022/07/22 11:53:57;;;;;;;1.30;0.90;;;22.50;96.20;;;;;;5027433;28;20073;-71
2022/07/22 11:56:24;;;;;;;2.03;0.98;;;22.50;96.70;;;;;;5026645;28;20030;-71
2022/07/22 11:58:53;;;;;;;2.30;1.05;;;22.40;96.50;;;;;;5026750;28;20061;-71
2022/07/22 12:01:20;;;;;;;1.83;1.00;;;22.30;96.40;;;;;;5023767;28;20037;-71
2022/07/22 12:03:50;;;;;;;5.68;1.77;;;22.10;96.10;;;;;;5027645;28;20030;-71
2022/07/22 12:06:18;;;;;;;4.15;1.10;;;22.00;96.10;;;;;;5027422;28;20030;-71
2022/07/22 12:08:50;;;;;;;9.05;1.40;;;21.80;95.00;;;;;;5027819;28;20041;-71
2022/07/22 12:11:17;;;;;;;4.70;1.08;;;21.80;96.10;;;;;;5025286;28;20497;-71
2022/07/22 12:13:45;;;;;;;4.90;1.60;;;21.80;97.00;;;;;;5026200;28;20064;-71
2022/07/22 12:16:26;;;;;;;1.63;1.00;;;21.80;96.60;;;;;;5027412;28;20504;-71
2022/07/22 12:18:59;;;;;;;4.20;1.20;;;21.80;96.60;;;;;;5025598;28;20037;-70
2022/07/22 12:21:56;;;;;;;3.33;0.98;;;21.70;94.60;;;;;;5030303;28;20036;-70
2022/07/22 12:24:27;;;;;;;1.38;0.70;;;21.70;96.20;;;;;;5021767;28;20120;-71
2022/07/22 12:26:53;;;;;;;3.47;1.20;;;21.70;96.20;;;;;;5031670;28;20065;-70
2022/07/22 12:29:20;;;;;;;1.98;0.95;;;21.70;95.70;;;;;;5030509;28;20103;-70
2022/07/22 12:31:55;;;;;;;3.00;1.05;;;21.60;95.50;;;;;;5030653;28;20486;-71
2022/07/22 12:34:35;;;;;;;2.70;0.77;;;21.60;96.10;;;;;;5028843;28;20037;-71
2022/07/22 12:37:18;;;;;;;1.20;0.90;;;21.70;96.50;;;;;;5030742;28;20116;-76
2022/07/22 12:40:00;;;;;;;2.50;1.10;;;21.80;95.90;;;;;;5030595;28;20500;-69
2022/07/22 12:42:32;;;;;;;1.77;0.98;;;21.90;96.40;;;;;;5027139;28;20513;-69
2022/07/22 12:45:02;;;;;;;1.58;0.70;;;22.00;96.30;;;;;;5030511;28;20040;-70
2022/07/22 12:47:53;;;;;;;2.65;1.45;;;22.00;95.20;;;;;;5030317;28;20030;-70
2022/07/22 12:50:31;;;;;;;2.15;1.08;;;22.10;96.20;;;;;;5036695;28;20034;-71
2022/07/22 12:53:05;;;;;;;2.85;0.80;;;22.30;95.70;;;;;;5026266;28;20401;-71